sensor_id;sensor_type;location;lat;lon;timestamp;temperature;humidity
20670;DHT22;10494;50.868;4.180;2022-11-18T00:01:19;9.90;99.90
20670;DHT22;10494;50.868;4.180;2022-11-18T00:03:45;9.80;99.90
20670;DHT22;10494;50.868;4.180;2022-11-18T00:06:14;9.80;99.90
20670;DHT22;10494;50.868;4.180;2022-11-18T00:08:40;9.90;99.90
20670;DHT22;10494;50.868;4.180;2022-11-18T00:11:08;9.90;99.90
20670;DHT22;10494;50.868;4.180;2022-11-18T00:13:34;9.90;99.90
20670;DHT22;10494;50.868;4.180;2022-11-18T00:16:19;9.90;99.90
20670;DHT22;10494;50.868;4.180;2022-11-18T00:18:45;10.00;99.90
20670;DHT22;10494;50.868;4.180;2022-11-18T00:21:11;10.00;99.90
20670;DHT22;10494;50.868;4.180;2022-11-18T00:23:38;10.00;99.90
20670;DHT22;10494;50.868;4.180;2022-11-18T00:26:08;10.10;99.90
20670;DHT22;10494;50.868;4.180;2022-11-18T00:28:34;10.10;99.90
20670;DHT22;10494;50.868;4.180;2022-11-18T00:31:04;10.10;99.90
20670;DHT22;10494;50.868;4.180;2022-11-18T00:33:30;10.20;99.90
20670;DHT22;10494;50.868;4.180;2022-11-18T00:35:56;10.20;99.90
20670;DHT22;10494;50.868;4.180;2022-11-18T00:38:23;10.20;99.90
20670;DHT22;10494;50.868;4.180;2022-11-18T00:40:48;10.20;99.90
20670;DHT22;10494;50.868;4.180;2022-11-18T00:43:15;10.10;99.90
20670;DHT22;10494;50.868;4.180;2022-11-18T00:45:41;10.10;99.90
20670;DHT22;10494;50.868;4.180;2022-11-18T00:48:07;10.20;99.90
20670;DHT22;10494;50.868;4.180;2022-11-18T00:50:33;10.20;99.90
20670;DHT22;10494;50.868;4.180;2022-11-18T00:52:58;10.20;99.90
20670;DHT22;10494;50.868;4.180;2022-11-18T00:55:24;10.20;99.90
20670;DHT22;10494;50.868;4.180;2022-11-18T00:57:49;10.20;99.90
20670;DHT22;10494;50.868;4.180;2022-11-18T01:00:15;10.30;99.90
20670;DHT22;10494;50.868;4.180;2022-11-18T01:02:41;10.30;99.90
20670;DHT22;10494;50.868;4.180;2022-11-18T01:05:06;10.30;99.90
20670;DHT22;10494;50.868;4.180;2022-11-18T01:07:32;10.20;99.90
20670;DHT22;10494;50.868;4.180;2022-11-18T01:09:58;10.20;99.90
20670;DHT22;10494;50.868;4.180;2022-11-18T01:12:23;10.10;99.90
20670;DHT22;10494;50.868;4.180;2022-11-18T01:15:08;10.00;99.90
20670;DHT22;10494;50.868;4.180;2022-11-18T01:17:33;9.90;99.90
20670;DHT22;10494;50.868;4.180;2022-11-18T01:19:59;9.80;99.90
20670;DHT22;10494;50.868;4.180;2022-11-18T01:22:24;9.80;99.90
20670;DHT22;10494;50.868;4.180;2022-11-18T01:24:50;9.70;99.90
20670;DHT22;10494;50.868;4.180;2022-11-18T01:27:15;9.70;99.90
20670;DHT22;10494;50.868;4.180;2022-11-18T01:29:41;9.70;99.90
20670;DHT22;10494;50.868;4.180;2022-11-18T01:32:07;9.70;99.90
20670;DHT22;10494;50.868;4.180;2022-11-18T01:34:32;9.60;99.90
20670;DHT22;10494;50.868;4.180;2022-11-18T01:36:58;9.60;99.90
20670;DHT22;10494;50.868;4.180;2022-11-18T01:39:24;9.60;99.90
20670;DHT22;10494;50.868;4.180;2022-11-18T01:41:50;9.60;99.90
20670;DHT22;10494;50.868;4.180;2022-11-18T01:44:52;9.50;99.90
20670;DHT22;10494;50.868;4.180;2022-11-18T01:47:20;9.60;99.90
20670;DHT22;10494;50.868;4.180;2022-11-18T01:49:46;9.60;99.90
20670;DHT22;10494;50.868;4.180;2022-11-18T01:52:12;9.60;99.90
20670;DHT22;10494;50.868;4.180;2022-11-18T01:54:41;9.60;99.90
20670;DHT22;10494;50.868;4.180;2022-11-18T01:57:12;9.60;99.90
20670;DHT22;10494;50.868;4.180;2022-11-18T01:59:43;9.60;99.90
20670;DHT22;10494;50.868;4.180;2022-11-18T02:02:12;9.60;99.90
20670;DHT22;10494;50.868;4.180;2022-11-18T02:04:41;9.50;99.90
20670;DHT22;10494;50.868;4.180;2022-11-18T02:07:08;9.50;99.90
20670;DHT22;10494;50.868;4.180;2022-11-18T02:09:34;9.40;99.90
20670;DHT22;10494;50.868;4.180;2022-11-18T02:12:00;9.50;99.90
20670;DHT22;10494;50.868;4.180;2022-11-18T02:14:33;9.50;99.90
20670;DHT22;10494;50.868;4.180;2022-11-18T02:22:42;9.50;99.90
20670;DHT22;10494;50.868;4.180;2022-11-18T02:28:09;9.40;99.90
20670;DHT22;10494;50.868;4.180;2022-11-18T02:30:47;9.40;99.90
20670;DHT22;10494;50.868;4.180;2022-11-18T02:33:32;9.30;99.90
20670;DHT22;10494;50.868;4.180;2022-11-18T02:36:25;9.30;99.90
20670;DHT22;10494;50.868;4.180;2022-11-18T02:39:00;9.20;99.90
20670;DHT22;10494;50.868;4.180;2022-11-18T02:41:29;9.20;99.90
20670;DHT22;10494;50.868;4.180;2022-11-18T02:43:58;9.10;99.90
20670;DHT22;10494;50.868;4.180;2022-11-18T02:46:31;9.10;99.90
20670;DHT22;10494;50.868;4.180;2022-11-18T02:48:58;9.00;99.90
20670;DHT22;10494;50.868;4.180;2022-11-18T02:51:27;9.00;99.90
20670;DHT22;10494;50.868;4.180;2022-11-18T02:54:03;8.90;99.90
20670;DHT22;10494;50.868;4.180;2022-11-18T02:56:33;9.00;99.90
20670;DHT22;10494;50.868;4.180;2022-11-18T02:58:59;9.00;99.90
20670;DHT22;10494;50.868;4.180;2022-11-18T03:01:28;8.90;99.90
20670;DHT22;10494;50.868;4.180;2022-11-18T03:03:55;8.80;99.90
20670;DHT22;10494;50.868;4.180;2022-11-18T03:06:41;8.80;99.90
20670;DHT22;10494;50.868;4.180;2022-11-18T03:09:19;8.80;99.90
20670;DHT22;10494;50.868;4.180;2022-11-18T03:14:45;8.80;99.90
20670;DHT22;10494;50.868;4.180;2022-11-18T03:17:20;8.80;99.90
20670;DHT22;10494;50.868;4.180;2022-11-18T03:22:59;8.70;99.90
20670;DHT22;10494;50.868;4.180;2022-11-18T03:25:37;8.70;99.90
20670;DHT22;10494;50.868;4.180;2022-11-18T03:28:12;8.70;99.90
20670;DHT22;10494;50.868;4.180;2022-11-18T03:30:45;8.60;99.90
20670;DHT22;10494;50.868;4.180;2022-11-18T03:33:15;8.60;99.90
20670;DHT22;10494;50.868;4.180;2022-11-18T03:35:45;8.50;99.90
20670;DHT22;10494;50.868;4.180;2022-11-18T03:38:17;8.50;99.90
20670;DHT22;10494;50.868;4.180;2022-11-18T03:40:51;8.60;99.90
20670;DHT22;10494;50.868;4.180;2022-11-18T03:43:21;8.60;99.90
20670;DHT22;10494;50.868;4.180;2022-11-18T03:45:55;8.60;99.90
20670;DHT22;10494;50.868;4.180;2022-11-18T03:48:27;8.50;99.90
20670;DHT22;10494;50.868;4.180;2022-11-18T03:50:59;8.60;99.90
20670;DHT22;10494;50.868;4.180;2022-11-18T03:53:28;8.50;99.90
20670;DHT22;10494;50.868;4.180;2022-11-18T03:56:03;8.40;99.90
20670;DHT22;10494;50.868;4.180;2022-11-18T03:58:39;8.50;99.90
20670;DHT22;10494;50.868;4.180;2022-11-18T04:01:15;8.50;99.90
20670;DHT22;10494;50.868;4.180;2022-11-18T04:03:42;8.50;99.90
20670;DHT22;10494;50.868;4.180;2022-11-18T04:06:28;8.60;99.90
20670;DHT22;10494;50.868;4.180;2022-11-18T04:08:59;8.60;99.90
20670;DHT22;10494;50.868;4.180;2022-11-18T04:11:32;8.60;99.90
20670;DHT22;10494;50.868;4.180;2022-11-18T04:14:40;8.60;99.90
20670;DHT22;10494;50.868;4.180;2022-11-18T04:19:35;8.60;99.90
20670;DHT22;10494;50.868;4.180;2022-11-18T04:22:00;8.60;99.90
20670;DHT22;10494;50.868;4.180;2022-11-18T04:24:26;8.60;99.90
20670;DHT22;10494;50.868;4.180;2022-11-18T04:26:52;8.60;99.90
20670;DHT22;10494;50.868;4.180;2022-11-18T04:29:17;8.50;99.90
20670;DHT22;10494;50.868;4.180;2022-11-18T04:31:43;8.50;99.90
20670;DHT22;10494;50.868;4.180;2022-11-18T04:34:09;8.40;99.90
20670;DHT22;10494;50.868;4.180;2022-11-18T04:36:34;8.40;99.90
20670;DHT22;10494;50.868;4.180;2022-11-18T04:39:00;8.40;99.90
20670;DHT22;10494;50.868;4.180;2022-11-18T04:41:25;8.40;99.90
20670;DHT22;10494;50.868;4.180;2022-11-18T04:44:11;8.50;99.90
20670;DHT22;10494;50.868;4.180;2022-11-18T04:46:41;8.40;99.90
20670;DHT22;10494;50.868;4.180;2022-11-18T04:49:08;8.40;99.90
20670;DHT22;10494;50.868;4.180;2022-11-18T04:51:34;8.30;99.90
20670;DHT22;10494;50.868;4.180;2022-11-18T04:54:00;8.30;99.90
20670;DHT22;10494;50.868;4.180;2022-11-18T04:56:25;8.40;99.90
20670;DHT22;10494;50.868;4.180;2022-11-18T04:58:51;8.30;99.90
20670;DHT22;10494;50.868;4.180;2022-11-18T05:01:16;8.30;99.90
20670;DHT22;10494;50.868;4.180;2022-11-18T05:03:42;8.30;99.90
20670;DHT22;10494;50.868;4.180;2022-11-18T05:06:07;8.30;99.90
20670;DHT22;10494;50.868;4.180;2022-11-18T05:08:33;8.30;99.90
20670;DHT22;10494;50.868;4.180;2022-11-18T05:10:58;8.30;99.90
20670;DHT22;10494;50.868;4.180;2022-11-18T05:13:44;8.30;99.90
20670;DHT22;10494;50.868;4.180;2022-11-18T05:16:09;8.30;99.90
20670;DHT22;10494;50.868;4.180;2022-11-18T05:18:35;8.30;99.90
20670;DHT22;10494;50.868;4.180;2022-11-18T05:21:04;8.20;99.90
20670;DHT22;10494;50.868;4.180;2022-11-18T05:23:30;8.20;99.90
20670;DHT22;10494;50.868;4.180;2022-11-18T05:25:56;8.20;99.90
20670;DHT22;10494;50.868;4.180;2022-11-18T05:28:21;8.30;99.90
20670;DHT22;10494;50.868;4.180;2022-11-18T05:30:47;8.20;99.90
20670;DHT22;10494;50.868;4.180;2022-11-18T05:33:12;8.20;99.90
20670;DHT22;10494;50.868;4.180;2022-11-18T05:35:38;8.20;99.90
20670;DHT22;10494;50.868;4.180;2022-11-18T05:38:03;8.20;99.90
20670;DHT22;10494;50.868;4.180;2022-11-18T05:40:29;8.20;99.90
20670;DHT22;10494;50.868;4.180;2022-11-18T05:42:54;8.20;99.90
20670;DHT22;10494;50.868;4.180;2022-11-18T05:45:35;8.30;99.90
20670;DHT22;10494;50.868;4.180;2022-11-18T05:48:01;8.20;99.90
20670;DHT22;10494;50.868;4.180;2022-11-18T05:50:29;8.20;99.90
20670;DHT22;10494;50.868;4.180;2022-11-18T05:52:55;8.20;99.90
20670;DHT22;10494;50.868;4.180;2022-11-18T05:55:23;8.10;99.90
20670;DHT22;10494;50.868;4.180;2022-11-18T05:57:50;8.10;99.90
20670;DHT22;10494;50.868;4.180;2022-11-18T06:00:16;8.10;99.90
20670;DHT22;10494;50.868;4.180;2022-11-18T06:02:42;8.00;99.90
20670;DHT22;10494;50.868;4.180;2022-11-18T06:05:10;8.10;99.90
20670;DHT22;10494;50.868;4.180;2022-11-18T06:07:43;8.00;99.90
20670;DHT22;10494;50.868;4.180;2022-11-18T06:10:16;7.90;99.90
20670;DHT22;10494;50.868;4.180;2022-11-18T06:12:45;7.90;99.90
20670;DHT22;10494;50.868;4.180;2022-11-18T06:15:24;7.90;99.90
20670;DHT22;10494;50.868;4.180;2022-11-18T06:18:18;7.90;99.90
20670;DHT22;10494;50.868;4.180;2022-11-18T06:20:45;7.80;99.90
20670;DHT22;10494;50.868;4.180;2022-11-18T06:23:11;7.80;99.90
20670;DHT22;10494;50.868;4.180;2022-11-18T06:25:38;7.80;99.90
20670;DHT22;10494;50.868;4.180;2022-11-18T06:28:04;7.80;99.90
20670;DHT22;10494;50.868;4.180;2022-11-18T06:30:30;7.90;99.90
20670;DHT22;10494;50.868;4.180;2022-11-18T06:32:56;7.90;99.90
20670;DHT22;10494;50.868;4.180;2022-11-18T06:35:21;7.90;99.90
20670;DHT22;10494;50.868;4.180;2022-11-18T06:37:47;8.00;99.90
20670;DHT22;10494;50.868;4.180;2022-11-18T06:40:12;8.00;99.90
20670;DHT22;10494;50.868;4.180;2022-11-18T06:42:38;8.00;99.90
20670;DHT22;10494;50.868;4.180;2022-11-18T06:45:22;8.00;99.90
20670;DHT22;10494;50.868;4.180;2022-11-18T06:47:47;8.00;99.90
20670;DHT22;10494;50.868;4.180;2022-11-18T06:50:13;8.00;99.90
20670;DHT22;10494;50.868;4.180;2022-11-18T06:52:39;8.10;99.90
20670;DHT22;10494;50.868;4.180;2022-11-18T06:55:04;8.20;99.90
20670;DHT22;10494;50.868;4.180;2022-11-18T06:57:33;8.10;99.90
20670;DHT22;10494;50.868;4.180;2022-11-18T06:59:59;8.20;99.90
20670;DHT22;10494;50.868;4.180;2022-11-18T07:02:25;8.30;99.90
20670;DHT22;10494;50.868;4.180;2022-11-18T07:04:51;8.40;99.90
20670;DHT22;10494;50.868;4.180;2022-11-18T07:07:16;8.40;99.90
20670;DHT22;10494;50.868;4.180;2022-11-18T07:09:42;8.50;99.90
20670;DHT22;10494;50.868;4.180;2022-11-18T07:12:07;8.50;99.90
20670;DHT22;10494;50.868;4.180;2022-11-18T07:14:33;8.50;99.90
20670;DHT22;10494;50.868;4.180;2022-11-18T07:16:58;8.70;99.90
20670;DHT22;10494;50.868;4.180;2022-11-18T07:19:24;8.80;99.90
20670;DHT22;10494;50.868;4.180;2022-11-18T07:21:49;8.90;99.90
20670;DHT22;10494;50.868;4.180;2022-11-18T07:24:15;9.00;99.90
20670;DHT22;10494;50.868;4.180;2022-11-18T07:26:41;9.10;99.90
20670;DHT22;10494;50.868;4.180;2022-11-18T07:29:07;9.10;99.90
20670;DHT22;10494;50.868;4.180;2022-11-18T07:31:34;9.30;99.90
20670;DHT22;10494;50.868;4.180;2022-11-18T07:34:02;9.20;99.90
20670;DHT22;10494;50.868;4.180;2022-11-18T07:36:28;9.30;99.90
20670;DHT22;10494;50.868;4.180;2022-11-18T07:38:54;9.40;99.90
20670;DHT22;10494;50.868;4.180;2022-11-18T07:41:24;9.50;99.90
20670;DHT22;10494;50.868;4.180;2022-11-18T07:43:52;9.60;99.90
20670;DHT22;10494;50.868;4.180;2022-11-18T07:46:30;9.60;99.90
20670;DHT22;10494;50.868;4.180;2022-11-18T07:48:58;9.60;99.90
20670;DHT22;10494;50.868;4.180;2022-11-18T07:51:29;9.70;99.90
20670;DHT22;10494;50.868;4.180;2022-11-18T07:53:56;9.70;99.90
20670;DHT22;10494;50.868;4.180;2022-11-18T07:56:22;9.60;99.90
20670;DHT22;10494;50.868;4.180;2022-11-18T07:58:54;9.60;99.90
20670;DHT22;10494;50.868;4.180;2022-11-18T08:01:21;9.50;99.90
20670;DHT22;10494;50.868;4.180;2022-11-18T08:03:47;9.40;99.90
20670;DHT22;10494;50.868;4.180;2022-11-18T08:06:16;9.40;99.90
20670;DHT22;10494;50.868;4.180;2022-11-18T08:08:42;9.30;99.90
20670;DHT22;10494;50.868;4.180;2022-11-18T08:11:11;9.30;99.90
20670;DHT22;10494;50.868;4.180;2022-11-18T08:13:36;9.30;99.90
20670;DHT22;10494;50.868;4.180;2022-11-18T08:16:03;9.40;99.90
20670;DHT22;10494;50.868;4.180;2022-11-18T08:18:31;9.30;99.90
20670;DHT22;10494;50.868;4.180;2022-11-18T08:21:01;9.40;99.90
20670;DHT22;10494;50.868;4.180;2022-11-18T08:23:27;9.50;99.90
20670;DHT22;10494;50.868;4.180;2022-11-18T08:26:19;9.60;99.90
20670;DHT22;10494;50.868;4.180;2022-11-18T08:28:45;9.60;99.90
20670;DHT22;10494;50.868;4.180;2022-11-18T08:31:19;9.90;99.90
20670;DHT22;10494;50.868;4.180;2022-11-18T08:33:45;9.90;99.90
20670;DHT22;10494;50.868;4.180;2022-11-18T08:36:20;9.90;99.90
20670;DHT22;10494;50.868;4.180;2022-11-18T08:38:46;9.90;99.90
20670;DHT22;10494;50.868;4.180;2022-11-18T08:41:13;9.80;99.90
20670;DHT22;10494;50.868;4.180;2022-11-18T08:43:39;9.80;99.90
20670;DHT22;10494;50.868;4.180;2022-11-18T08:46:05;9.90;99.90
20670;DHT22;10494;50.868;4.180;2022-11-18T08:48:31;9.90;99.90
20670;DHT22;10494;50.868;4.180;2022-11-18T08:50:57;10.00;99.90
20670;DHT22;10494;50.868;4.180;2022-11-18T08:53:23;10.00;99.90
20670;DHT22;10494;50.868;4.180;2022-11-18T08:55:59;10.10;99.90
20670;DHT22;10494;50.868;4.180;2022-11-18T08:58:26;10.10;99.90
20670;DHT22;10494;50.868;4.180;2022-11-18T09:00:52;10.10;99.90
20670;DHT22;10494;50.868;4.180;2022-11-18T09:03:18;10.10;99.90
20670;DHT22;10494;50.868;4.180;2022-11-18T09:05:44;10.10;99.90
20670;DHT22;10494;50.868;4.180;2022-11-18T09:08:09;10.20;99.90
20670;DHT22;10494;50.868;4.180;2022-11-18T09:10:36;10.20;99.90
20670;DHT22;10494;50.868;4.180;2022-11-18T09:13:02;10.10;99.90
20670;DHT22;10494;50.868;4.180;2022-11-18T09:15:27;10.00;99.90
20670;DHT22;10494;50.868;4.180;2022-11-18T09:17:55;10.00;99.90
20670;DHT22;10494;50.868;4.180;2022-11-18T09:20:20;10.10;99.90
20670;DHT22;10494;50.868;4.180;2022-11-18T09:22:46;10.10;99.90
20670;DHT22;10494;50.868;4.180;2022-11-18T09:25:12;10.20;99.90
20670;DHT22;10494;50.868;4.180;2022-11-18T09:27:37;10.20;99.90
20670;DHT22;10494;50.868;4.180;2022-11-18T09:30:04;10.20;99.90
20670;DHT22;10494;50.868;4.180;2022-11-18T09:32:31;10.30;99.90
20670;DHT22;10494;50.868;4.180;2022-11-18T09:34:57;10.20;99.90
20670;DHT22;10494;50.868;4.180;2022-11-18T09:37:24;10.20;99.90
20670;DHT22;10494;50.868;4.180;2022-11-18T09:39:50;10.20;99.90
20670;DHT22;10494;50.868;4.180;2022-11-18T09:47:41;10.50;99.90
20670;DHT22;10494;50.868;4.180;2022-11-18T09:50:13;10.60;99.90
20670;DHT22;10494;50.868;4.180;2022-11-18T09:55:16;10.80;99.90
20670;DHT22;10494;50.868;4.180;2022-11-18T10:00:21;11.00;99.90
20670;DHT22;10494;50.868;4.180;2022-11-18T10:02:49;11.00;99.90
20670;DHT22;10494;50.868;4.180;2022-11-18T10:05:20;11.00;99.90
20670;DHT22;10494;50.868;4.180;2022-11-18T10:19:21;11.30;99.90
20670;DHT22;10494;50.868;4.180;2022-11-18T10:22:10;11.50;99.90
20670;DHT22;10494;50.868;4.180;2022-11-18T10:24:42;11.50;99.90
20670;DHT22;10494;50.868;4.180;2022-11-18T10:27:12;11.50;99.90
20670;DHT22;10494;50.868;4.180;2022-11-18T10:29:38;11.70;99.90
20670;DHT22;10494;50.868;4.180;2022-11-18T10:32:07;11.70;99.90
20670;DHT22;10494;50.868;4.180;2022-11-18T10:34:34;11.70;99.90
20670;DHT22;10494;50.868;4.180;2022-11-18T10:37:03;11.80;99.90
20670;DHT22;10494;50.868;4.180;2022-11-18T10:39:29;11.80;99.90
20670;DHT22;10494;50.868;4.180;2022-11-18T10:42:04;11.60;99.90
20670;DHT22;10494;50.868;4.180;2022-11-18T10:47:23;11.20;99.90
20670;DHT22;10494;50.868;4.180;2022-11-18T10:49:53;11.10;99.90
20670;DHT22;10494;50.868;4.180;2022-11-18T10:52:19;11.00;99.90
20670;DHT22;10494;50.868;4.180;2022-11-18T10:55:08;10.90;99.90
20670;DHT22;10494;50.868;4.180;2022-11-18T10:57:36;11.00;99.90
20670;DHT22;10494;50.868;4.180;2022-11-18T11:03:26;11.00;99.90
20670;DHT22;10494;50.868;4.180;2022-11-18T11:08:47;11.10;99.90
20670;DHT22;10494;50.868;4.180;2022-11-18T11:11:41;11.30;99.90
20670;DHT22;10494;50.868;4.180;2022-11-18T11:14:15;11.20;99.90
20670;DHT22;10494;50.868;4.180;2022-11-18T11:16:56;11.20;99.90
20670;DHT22;10494;50.868;4.180;2022-11-18T11:19:25;11.20;99.90
20670;DHT22;10494;50.868;4.180;2022-11-18T11:21:52;11.30;99.90
20670;DHT22;10494;50.868;4.180;2022-11-18T11:24:18;11.30;99.90
20670;DHT22;10494;50.868;4.180;2022-11-18T11:26:50;11.40;99.90
20670;DHT22;10494;50.868;4.180;2022-11-18T11:32:29;11.40;99.90
20670;DHT22;10494;50.868;4.180;2022-11-18T11:38:51;11.40;99.90
20670;DHT22;10494;50.868;4.180;2022-11-18T11:46:47;11.40;99.90
20670;DHT22;10494;50.868;4.180;2022-11-18T11:49:52;11.30;99.90
20670;DHT22;10494;50.868;4.180;2022-11-18T11:52:58;11.40;99.90
20670;DHT22;10494;50.868;4.180;2022-11-18T11:55:33;11.30;99.90
20670;DHT22;10494;50.868;4.180;2022-11-18T12:00:44;11.20;99.90
20670;DHT22;10494;50.868;4.180;2022-11-18T12:03:44;11.30;99.90
20670;DHT22;10494;50.868;4.180;2022-11-18T12:06:10;11.40;99.90
20670;DHT22;10494;50.868;4.180;2022-11-18T12:08:37;11.30;99.90
20670;DHT22;10494;50.868;4.180;2022-11-18T12:11:25;11.40;99.90
20670;DHT22;10494;50.868;4.180;2022-11-18T12:19:40;11.40;99.90
20670;DHT22;10494;50.868;4.180;2022-11-18T12:22:06;11.40;99.90
20670;DHT22;10494;50.868;4.180;2022-11-18T12:32:41;11.60;99.90
20670;DHT22;10494;50.868;4.180;2022-11-18T12:40:41;11.70;99.90
20670;DHT22;10494;50.868;4.180;2022-11-18T12:48:50;11.90;99.90
20670;DHT22;10494;50.868;4.180;2022-11-18T12:53:47;12.00;99.90
20670;DHT22;10494;50.868;4.180;2022-11-18T12:58:49;12.10;99.90
20670;DHT22;10494;50.868;4.180;2022-11-18T13:01:18;12.30;99.90
20670;DHT22;10494;50.868;4.180;2022-11-18T13:03:44;12.40;99.90
20670;DHT22;10494;50.868;4.180;2022-11-18T13:06:26;12.40;99.90
20670;DHT22;10494;50.868;4.180;2022-11-18T13:09:04;12.40;99.90
20670;DHT22;10494;50.868;4.180;2022-11-18T13:11:42;12.50;99.90
20670;DHT22;10494;50.868;4.180;2022-11-18T13:14:16;12.50;99.90
20670;DHT22;10494;50.868;4.180;2022-11-18T13:17:01;12.60;99.90
20670;DHT22;10494;50.868;4.180;2022-11-18T13:19:57;12.70;99.90
20670;DHT22;10494;50.868;4.180;2022-11-18T13:22:23;12.60;99.90
20670;DHT22;10494;50.868;4.180;2022-11-18T13:25:21;12.70;99.90
20670;DHT22;10494;50.868;4.180;2022-11-18T13:28:02;12.90;99.90
20670;DHT22;10494;50.868;4.180;2022-11-18T13:30:31;13.00;99.90
20670;DHT22;10494;50.868;4.180;2022-11-18T13:32:59;13.10;99.90
20670;DHT22;10494;50.868;4.180;2022-11-18T13:35:25;13.00;99.90
20670;DHT22;10494;50.868;4.180;2022-11-18T13:37:59;13.00;99.90
20670;DHT22;10494;50.868;4.180;2022-11-18T13:40:31;13.00;99.90
20670;DHT22;10494;50.868;4.180;2022-11-18T13:43:02;13.10;99.90
20670;DHT22;10494;50.868;4.180;2022-11-18T13:45:29;13.00;99.90
20670;DHT22;10494;50.868;4.180;2022-11-18T13:50:47;13.10;99.90
20670;DHT22;10494;50.868;4.180;2022-11-18T13:53:39;13.20;99.90
20670;DHT22;10494;50.868;4.180;2022-11-18T13:56:21;13.20;99.90
20670;DHT22;10494;50.868;4.180;2022-11-18T13:58:53;13.30;99.90
20670;DHT22;10494;50.868;4.180;2022-11-18T14:01:24;13.30;99.90
20670;DHT22;10494;50.868;4.180;2022-11-18T14:03:59;13.20;99.90
20670;DHT22;10494;50.868;4.180;2022-11-18T14:06:37;13.30;99.90
20670;DHT22;10494;50.868;4.180;2022-11-18T14:09:29;13.20;99.90
20670;DHT22;10494;50.868;4.180;2022-11-18T14:14:40;13.30;99.90
20670;DHT22;10494;50.868;4.180;2022-11-18T14:17:24;13.30;99.90
20670;DHT22;10494;50.868;4.180;2022-11-18T14:19:56;13.30;99.90
20670;DHT22;10494;50.868;4.180;2022-11-18T14:22:27;13.40;99.90
20670;DHT22;10494;50.868;4.180;2022-11-18T14:27:42;13.40;99.90
20670;DHT22;10494;50.868;4.180;2022-11-18T14:30:34;13.40;99.90
20670;DHT22;10494;50.868;4.180;2022-11-18T14:33:18;13.40;99.90
20670;DHT22;10494;50.868;4.180;2022-11-18T14:38:18;13.30;99.90
20670;DHT22;10494;50.868;4.180;2022-11-18T14:40:44;13.30;99.90
20670;DHT22;10494;50.868;4.180;2022-11-18T14:43:12;13.20;99.90
20670;DHT22;10494;50.868;4.180;2022-11-18T14:45:39;13.20;99.90
20670;DHT22;10494;50.868;4.180;2022-11-18T14:48:05;13.20;99.90
20670;DHT22;10494;50.868;4.180;2022-11-18T14:50:31;13.10;99.90
20670;DHT22;10494;50.868;4.180;2022-11-18T14:52:56;12.80;99.90
20670;DHT22;10494;50.868;4.180;2022-11-18T14:55:22;12.60;99.90
20670;DHT22;10494;50.868;4.180;2022-11-18T14:57:47;12.40;99.90
20670;DHT22;10494;50.868;4.180;2022-11-18T15:00:14;12.30;99.90
20670;DHT22;10494;50.868;4.180;2022-11-18T15:02:40;12.30;99.90
20670;DHT22;10494;50.868;4.180;2022-11-18T15:05:06;12.20;99.90
20670;DHT22;10494;50.868;4.180;2022-11-18T15:07:32;12.10;99.90
20670;DHT22;10494;50.868;4.180;2022-11-18T15:09:58;12.00;99.90
20670;DHT22;10494;50.868;4.180;2022-11-18T15:12:23;12.00;99.90
20670;DHT22;10494;50.868;4.180;2022-11-18T15:14:49;12.00;99.90
20670;DHT22;10494;50.868;4.180;2022-11-18T15:17:14;12.00;99.90
20670;DHT22;10494;50.868;4.180;2022-11-18T15:19:40;12.00;99.90
20670;DHT22;10494;50.868;4.180;2022-11-18T15:22:06;11.90;99.90
20670;DHT22;10494;50.868;4.180;2022-11-18T15:24:31;11.90;99.90
20670;DHT22;10494;50.868;4.180;2022-11-18T15:26:57;11.90;99.90
20670;DHT22;10494;50.868;4.180;2022-11-18T15:29:24;11.80;99.90
20670;DHT22;10494;50.868;4.180;2022-11-18T15:31:50;11.80;99.90
20670;DHT22;10494;50.868;4.180;2022-11-18T15:34:16;11.60;99.90
20670;DHT22;10494;50.868;4.180;2022-11-18T15:36:42;11.60;99.90
20670;DHT22;10494;50.868;4.180;2022-11-18T15:39:09;11.50;99.90
20670;DHT22;10494;50.868;4.180;2022-11-18T15:41:35;11.40;99.90
20670;DHT22;10494;50.868;4.180;2022-11-18T15:44:02;11.30;99.90
20670;DHT22;10494;50.868;4.180;2022-11-18T15:46:28;11.20;99.90
20670;DHT22;10494;50.868;4.180;2022-11-18T15:48:59;11.20;99.90
20670;DHT22;10494;50.868;4.180;2022-11-18T15:51:26;11.10;99.90
20670;DHT22;10494;50.868;4.180;2022-11-18T15:53:52;11.00;99.90
20670;DHT22;10494;50.868;4.180;2022-11-18T15:58:44;11.00;99.90
20670;DHT22;10494;50.868;4.180;2022-11-18T16:01:10;10.90;99.90
20670;DHT22;10494;50.868;4.180;2022-11-18T16:03:36;10.90;99.90
20670;DHT22;10494;50.868;4.180;2022-11-18T16:06:02;10.90;99.90
20670;DHT22;10494;50.868;4.180;2022-11-18T16:08:29;10.90;99.90
20670;DHT22;10494;50.868;4.180;2022-11-18T16:10:56;11.00;99.90
20670;DHT22;10494;50.868;4.180;2022-11-18T16:13:40;10.90;99.90
20670;DHT22;10494;50.868;4.180;2022-11-18T16:16:06;10.80;99.90
20670;DHT22;10494;50.868;4.180;2022-11-18T16:18:32;10.90;99.90
20670;DHT22;10494;50.868;4.180;2022-11-18T16:20:59;10.90;99.90
20670;DHT22;10494;50.868;4.180;2022-11-18T16:23:25;10.90;99.90
20670;DHT22;10494;50.868;4.180;2022-11-18T16:25:54;10.90;99.90
20670;DHT22;10494;50.868;4.180;2022-11-18T16:28:20;10.90;99.90
20670;DHT22;10494;50.868;4.180;2022-11-18T16:30:49;11.00;99.90
20670;DHT22;10494;50.868;4.180;2022-11-18T16:33:33;11.10;99.90
20670;DHT22;10494;50.868;4.180;2022-11-18T16:35:59;11.00;99.90
20670;DHT22;10494;50.868;4.180;2022-11-18T16:38:24;11.00;99.90
20670;DHT22;10494;50.868;4.180;2022-11-18T16:40:59;11.00;99.90
20670;DHT22;10494;50.868;4.180;2022-11-18T16:43:25;11.00;99.90
20670;DHT22;10494;50.868;4.180;2022-11-18T16:45:54;11.20;99.90
20670;DHT22;10494;50.868;4.180;2022-11-18T16:48:21;11.10;99.90
20670;DHT22;10494;50.868;4.180;2022-11-18T16:51:34;11.10;99.90
20670;DHT22;10494;50.868;4.180;2022-11-18T16:54:00;11.10;99.90
20670;DHT22;10494;50.868;4.180;2022-11-18T16:56:28;11.10;99.90
20670;DHT22;10494;50.868;4.180;2022-11-18T16:58:59;11.20;99.90
20670;DHT22;10494;50.868;4.180;2022-11-18T17:01:25;11.10;99.90
20670;DHT22;10494;50.868;4.180;2022-11-18T17:03:52;11.20;99.90
20670;DHT22;10494;50.868;4.180;2022-11-18T17:06:19;11.10;99.90
20670;DHT22;10494;50.868;4.180;2022-11-18T17:08:45;11.10;99.90
20670;DHT22;10494;50.868;4.180;2022-11-18T17:11:11;11.20;99.90
20670;DHT22;10494;50.868;4.180;2022-11-18T17:13:37;11.10;99.90
20670;DHT22;10494;50.868;4.180;2022-11-18T17:16:08;11.10;99.90
20670;DHT22;10494;50.868;4.180;2022-11-18T17:18:34;11.10;99.90
20670;DHT22;10494;50.868;4.180;2022-11-18T17:21:12;11.10;99.90
20670;DHT22;10494;50.868;4.180;2022-11-18T17:23:39;11.10;99.90
20670;DHT22;10494;50.868;4.180;2022-11-18T17:26:06;11.10;99.90
20670;DHT22;10494;50.868;4.180;2022-11-18T17:28:34;11.20;99.90
20670;DHT22;10494;50.868;4.180;2022-11-18T17:31:07;11.10;99.90
20670;DHT22;10494;50.868;4.180;2022-11-18T17:33:33;11.10;99.90
20670;DHT22;10494;50.868;4.180;2022-11-18T17:36:01;11.10;99.90
20670;DHT22;10494;50.868;4.180;2022-11-18T17:38:29;11.10;99.90
20670;DHT22;10494;50.868;4.180;2022-11-18T17:40:56;11.10;99.90